Time;durP1;ratioP1;P1;durP2;ratioP2;P2;SDS_P1;SDS_P2;PMS_P1;PMS_P2;Temp;Humidity;BMP_temperature;BMP_pressure;BME280_temperature;BME280_humidity;BME280_pressure;Samples;Min_cycle;Max_cycle;Signal;HPM_P1;HPM_P2
2023/05/07 00:03:01;;;;;;;5.63;2.83;;;;;;;;;;10303267;28;20060;-70
2023/05/07 00:07:59;;;;;;;8.45;3.35;;;;;;;;;;10303431;28;20065;-69
2023/05/07 00:12:57;;;;;;;8.48;2.85;;;;;;;;;;10308475;28;20045;-69
2023/05/07 00:17:57;;;;;;;8.73;2.90;;;;;;;;;;10300796;28;20094;-69
2023/05/07 00:22:56;;;;;;;7.10;3.10;;;;;;;;;;10303107;28;20068;-69
2023/05/07 00:27:55;;;;;;;4.00;3.00;;;;;;;;;;10302630;28;20068;-69
2023/05/07 00:32:53;;;;;;;6.82;3.13;;;;;;;;;;10299994;28;20094;-69
2023/05/07 00:37:51;;;;;;;3.53;3.20;;;;;;;;;;10299290;28;20071;-70
2023/05/07 00:42:56;;;;;;;7.05;3.40;;;;;;;;;;10302162;28;20072;-69
2023/05/07 00:47:55;;;;;;;5.68;2.90;;;;;;;;;;10314960;28;20424;-70
2023/05/07 00:52:53;;;;;;;6.70;3.08;;;;;;;;;;10296821;28;20476;-70
2023/05/07 00:57:53;;;;;;;13.38;3.35;;;;;;;;;;10298158;28;20079;-69
2023/05/07 01:02:51;;;;;;;8.48;3.30;;;;;;;;;;10297290;28;20103;-68
2023/05/07 01:07:51;;;;;;;4.03;3.45;;;;;;;;;;10301223;28;20072;-70
2023/05/07 01:12:49;;;;;;;5.38;3.20;;;;;;;;;;10297352;28;20067;-69
2023/05/07 01:17:49;;;;;;;7.13;3.28;;;;;;;;;;10299254;28;20536;-69
2023/05/07 01:22:58;;;;;;;6.07;3.45;;;;;;;;;;10312536;28;20114;-69
2023/05/07 01:27:56;;;;;;;7.95;3.38;;;;;;;;;;10292091;28;20079;-70
2023/05/07 01:33:02;;;;;;;4.95;2.67;;;;;;;;;;10298254;28;20084;-70
2023/05/07 01:38:04;;;;;;;3.55;2.80;;;;;;;;;;10297840;28;20068;-69
2023/05/07 01:43:03;;;;;;;3.33;2.95;;;;;;;;;;10308711;28;20513;-70
2023/05/07 01:48:03;;;;;;;5.25;2.92;;;;;;;;;;10289713;28;20111;-69
2023/05/07 01:53:02;;;;;;;6.97;3.88;;;;;;;;;;10292268;28;20194;-70
2023/05/07 01:58:01;;;;;;;6.60;3.25;;;;;;;;;;10295157;28;20072;-69
2023/05/07 02:02:59;;;;;;;8.27;3.60;;;;;;;;;;10292979;28;20087;-70
2023/05/07 02:08:10;;;;;;;4.57;4.13;;;;;;;;;;10300486;28;20092;-70
2023/05/07 02:13:09;;;;;;;6.80;3.53;;;;;;;;;;10297895;28;20474;-70
2023/05/07 02:18:08;;;;;;;8.02;3.10;;;;;;;;;;10297108;28;20076;-70
2023/05/07 02:23:07;;;;;;;3.95;3.00;;;;;;;;;;10291636;28;20048;-70
2023/05/07 02:28:06;;;;;;;4.50;2.75;;;;;;;;;;10302347;28;20060;-70
2023/05/07 02:33:20;;;;;;;6.68;2.60;;;;;;;;;;10300809;28;20095;-70
2023/05/07 02:38:19;;;;;;;3.08;2.72;;;;;;;;;;10298889;28;20642;-70
2023/05/07 02:43:18;;;;;;;7.88;5.05;;;;;;;;;;10293795;28;20072;-70
2023/05/07 02:48:19;;;;;;;22.52;4.88;;;;;;;;;;10294564;28;20626;-70
2023/05/07 02:53:17;;;;;;;4.15;2.85;;;;;;;;;;10300316;28;20072;-70
2023/05/07 02:58:15;;;;;;;4.70;3.50;;;;;;;;;;10295640;28;20075;-69
2023/05/07 03:03:15;;;;;;;10.27;3.72;;;;;;;;;;10306992;28;20067;-70
2023/05/07 03:08:13;;;;;;;9.60;3.28;;;;;;;;;;10303767;28;20072;-70
2023/05/07 03:13:12;;;;;;;6.88;4.18;;;;;;;;;;10307596;28;20580;-70
2023/05/07 03:18:10;;;;;;;18.27;5.10;;;;;;;;;;10311291;28;20077;-70
2023/05/07 03:23:10;;;;;;;11.77;6.30;;;;;;;;;;10308540;28;20072;-70
2023/05/07 03:28:09;;;;;;;7.53;6.47;;;;;;;;;;10303473;28;20539;-70
2023/05/07 03:33:13;;;;;;;6.78;5.10;;;;;;;;;;10302851;28;20073;-69
2023/05/07 03:38:13;;;;;;;7.90;5.13;;;;;;;;;;10309637;28;20087;-70
2023/05/07 03:43:11;;;;;;;13.15;5.05;;;;;;;;;;10310023;28;20512;-70
2023/05/07 03:48:14;;;;;;;7.03;4.55;;;;;;;;;;10303906;28;20095;-70
2023/05/07 03:53:15;;;;;;;8.43;4.68;;;;;;;;;;10321938;28;20502;-73
2023/05/07 03:58:13;;;;;;;7.50;5.53;;;;;;;;;;10308225;28;20080;-73
2023/05/07 04:03:11;;;;;;;8.75;4.68;;;;;;;;;;10307791;28;20076;-70
2023/05/07 04:08:10;;;;;;;6.70;4.40;;;;;;;;;;10297068;28;20564;-70
2023/05/07 04:13:14;;;;;;;4.78;3.58;;;;;;;;;;10302455;28;20088;-70
2023/05/07 04:18:13;;;;;;;4.80;3.35;;;;;;;;;;10296596;28;20506;-70
2023/05/07 04:23:14;;;;;;;4.13;3.60;;;;;;;;;;10303628;28;20528;-70
2023/05/07 04:28:14;;;;;;;6.57;3.72;;;;;;;;;;10303713;28;20532;-70
2023/05/07 04:33:14;;;;;;;4.13;3.47;;;;;;;;;;10313127;28;20520;-70
2023/05/07 04:38:13;;;;;;;5.22;3.63;;;;;;;;;;10297585;28;20075;-70
2023/05/07 04:43:14;;;;;;;9.45;5.55;;;;;;;;;;10292922;28;20083;-70
2023/05/07 04:48:19;;;;;;;8.73;4.85;;;;;;;;;;10298928;28;20071;-70
2023/05/07 04:53:18;;;;;;;4.75;3.63;;;;;;;;;;10300068;28;20076;-69
2023/05/07 04:58:19;;;;;;;6.35;4.20;;;;;;;;;;10313431;28;20080;-70
2023/05/07 05:03:18;;;;;;;6.18;3.72;;;;;;;;;;10297397;28;20078;-70
2023/05/07 05:08:17;;;;;;;6.88;3.80;;;;;;;;;;10296506;28;20510;-70
2023/05/07 05:13:15;;;;;;;5.72;3.20;;;;;;;;;;10295306;28;20488;-70
2023/05/07 05:18:15;;;;;;;11.50;4.15;;;;;;;;;;10295656;28;20089;-70
2023/05/07 05:23:13;;;;;;;12.80;4.47;;;;;;;;;;10295638;28;20488;-70
2023/05/07 05:28:11;;;;;;;12.60;4.50;;;;;;;;;;10303873;28;20080;-70
2023/05/07 05:33:09;;;;;;;5.80;4.40;;;;;;;;;;10290123;28;20075;-70
2023/05/07 05:38:10;;;;;;;6.68;4.30;;;;;;;;;;10286299;28;20076;-70
2023/05/07 05:43:09;;;;;;;5.57;4.93;;;;;;;;;;10289402;28;20098;-71
2023/05/07 05:48:09;;;;;;;6.25;4.65;;;;;;;;;;10293000;28;20073;-70
2023/05/07 05:53:10;;;;;;;4.93;3.97;;;;;;;;;;10294674;28;20472;-70
2023/05/07 05:58:09;;;;;;;12.88;9.02;;;;;;;;;;10303582;28;20083;-68
2023/05/07 06:03:12;;;;;;;7.80;4.07;;;;;;;;;;10303877;28;20633;-67
2023/05/07 06:08:14;;;;;;;5.70;3.63;;;;;;;;;;10301577;28;20723;-68
2023/05/07 06:13:12;;;;;;;5.82;3.85;;;;;;;;;;10291462;28;20072;-70
2023/05/07 06:18:12;;;;;;;6.93;3.20;;;;;;;;;;10298074;28;20087;-68
2023/05/07 06:23:11;;;;;;;5.47;3.20;;;;;;;;;;10296794;28;20480;-68
2023/05/07 06:28:11;;;;;;;4.18;2.75;;;;;;;;;;10293236;28;20079;-69
2023/05/07 06:33:13;;;;;;;19.33;4.22;;;;;;;;;;10294298;28;20084;-68
2023/05/07 06:38:14;;;;;;;2.70;2.50;;;;;;;;;;10309461;28;20083;-68
2023/05/07 06:43:16;;;;;;;5.60;2.58;;;;;;;;;;10302691;28;20053;-68
2023/05/07 06:48:23;;;;;;;3.28;2.72;;;;;;;;;;10300435;28;20071;-68
2023/05/07 06:53:31;;;;;;;2.90;2.42;;;;;;;;;;10301655;28;20080;-69
2023/05/07 06:58:32;;;;;;;7.00;3.08;;;;;;;;;;10302249;28;20041;-69
2023/05/07 07:03:31;;;;;;;7.30;2.92;;;;;;;;;;10309845;28;20080;-68
2023/05/07 07:08:30;;;;;;;7.18;5.40;;;;;;;;;;10309123;28;20079;-70
2023/05/07 07:13:28;;;;;;;12.95;3.75;;;;;;;;;;10306890;28;20072;-69
2023/05/07 07:18:28;;;;;;;5.43;2.90;;;;;;;;;;10302778;28;20076;-70
2023/05/07 07:23:28;;;;;;;7.97;2.63;;;;;;;;;;10301759;28;20072;-69
2023/05/07 07:28:27;;;;;;;5.07;3.78;;;;;;;;;;10298665;28;20083;-69
2023/05/07 07:33:25;;;;;;;4.07;3.25;;;;;;;;;;10306617;28;20077;-69
2023/05/07 07:38:25;;;;;;;7.00;3.03;;;;;;;;;;10297655;28;20541;-68
2023/05/07 07:43:23;;;;;;;5.65;2.53;;;;;;;;;;10300532;28;20080;-69
2023/05/07 07:48:22;;;;;;;5.30;2.88;;;;;;;;;;10307570;28;20102;-69
2023/05/07 07:53:20;;;;;;;5.93;2.63;;;;;;;;;;10303597;28;20079;-69
2023/05/07 07:58:21;;;;;;;4.78;2.42;;;;;;;;;;10299912;28;20045;-69
2023/05/07 08:03:20;;;;;;;9.13;2.80;;;;;;;;;;10299844;28;20081;-68
2023/05/07 08:08:23;;;;;;;4.72;2.45;;;;;;;;;;10299884;28;20076;-68
2023/05/07 08:13:24;;;;;;;5.90;2.53;;;;;;;;;;10298341;28;20870;-68
2023/05/07 08:18:24;;;;;;;7.70;2.72;;;;;;;;;;10306221;28;20087;-68
2023/05/07 08:23:23;;;;;;;7.82;2.28;;;;;;;;;;10295445;28;20083;-68
2023/05/07 08:28:21;;;;;;;3.80;2.25;;;;;;;;;;10305888;28;20500;-69
2023/05/07 08:33:21;;;;;;;5.57;2.88;;;;;;;;;;10297633;28;20469;-73
2023/05/07 08:38:20;;;;;;;6.68;3.25;;;;;;;;;;10299029;28;20496;-68
2023/05/07 08:43:19;;;;;;;7.00;3.38;;;;;;;;;;10297454;28;20048;-69
2023/05/07 08:48:18;;;;;;;5.07;2.65;;;;;;;;;;10297038;28;20461;-68
2023/05/07 08:53:25;;;;;;;5.18;2.75;;;;;;;;;;10296655;28;20495;-68
2023/05/07 08:58:24;;;;;;;4.70;3.28;;;;;;;;;;10297258;28;20082;-68
2023/05/07 09:03:22;;;;;;;4.90;2.60;;;;;;;;;;10298581;28;20428;-66
2023/05/07 09:08:27;;;;;;;2.60;2.03;;;;;;;;;;10300533;28;20536;-68
2023/05/07 09:13:28;;;;;;;2.70;1.90;;;;;;;;;;10290580;28;20079;-69
2023/05/07 09:18:26;;;;;;;1.85;1.73;;;;;;;;;;10300467;28;20076;-68
2023/05/07 09:23:27;;;;;;;5.03;4.07;;;;;;;;;;10302948;28;20119;-68
2023/05/07 09:28:25;;;;;;;2.75;1.98;;;;;;;;;;10302598;28;20076;-69
2023/05/07 09:33:27;;;;;;;10.35;6.72;;;;;;;;;;10300130;28;20076;-69
2023/05/07 09:38:28;;;;;;;5.72;5.07;;;;;;;;;;10299029;28;20068;-69
2023/05/07 09:43:32;;;;;;;5.22;2.40;;;;;;;;;;10299540;28;20087;-70
2023/05/07 09:48:31;;;;;;;12.82;10.23;;;;;;;;;;10294045;28;20092;-69
2023/05/07 09:53:32;;;;;;;5.65;2.20;;;;;;;;;;10301771;28;20536;-68
2023/05/07 09:58:37;;;;;;;8.40;6.32;;;;;;;;;;10294859;28;20135;-69
2023/05/07 10:03:36;;;;;;;6.15;4.78;;;;;;;;;;10293825;28;20075;-69
2023/05/07 10:08:38;;;;;;;4.97;2.15;;;;;;;;;;10308423;28;20064;-67
2023/05/07 10:13:38;;;;;;;3.70;2.00;;;;;;;;;;10288948;28;20092;-70
2023/05/07 10:18:41;;;;;;;4.18;2.58;;;;;;;;;;10296780;28;20092;-70
2023/05/07 10:23:50;;;;;;;2.78;2.40;;;;;;;;;;10307984;28;20080;-68
2023/05/07 10:28:50;;;;;;;3.17;2.80;;;;;;;;;;10289010;28;20072;-69
2023/05/07 10:33:50;;;;;;;5.40;3.47;;;;;;;;;;10300048;28;20513;-69
2023/05/07 10:38:53;;;;;;;3.47;2.15;;;;;;;;;;10308416;28;20540;-68
2023/05/07 10:43:51;;;;;;;6.78;4.60;;;;;;;;;;10289089;28;20072;-68
2023/05/07 10:49:11;;;;;;;3.38;2.25;;;;;;;;;;10296707;28;20537;-68
2023/05/07 10:54:31;;;;;;;4.03;2.95;;;;;;;;;;10299815;28;20111;-68
2023/05/07 10:59:40;;;;;;;3.22;2.92;;;;;;;;;;10310315;28;20072;-69
2023/05/07 11:05:07;;;;;;;6.03;4.13;;;;;;;;;;10293223;28;20509;-72
2023/05/07 11:10:08;;;;;;;5.22;4.30;;;;;;;;;;10295313;28;20076;-69
2023/05/07 11:15:35;;;;;;;5.53;2.28;;;;;;;;;;10292833;28;20226;-70
2023/05/07 11:20:52;;;;;;;7.80;3.83;;;;;;;;;;10296802;28;20130;-69
2023/05/07 11:26:31;;;;;;;4.22;2.80;;;;;;;;;;10266768;28;20087;-69
2023/05/07 11:31:29;;;;;;;4.75;4.07;;;;;;;;;;10281066;28;20532;-70
2023/05/07 11:36:32;;;;;;;3.97;3.10;;;;;;;;;;10298791;28;20080;-71
2023/05/07 11:41:38;;;;;;;6.10;3.90;;;;;;;;;;10306756;28;20084;-71
2023/05/07 11:46:36;;;;;;;3.83;2.67;;;;;;;;;;10302502;28;20456;-71
2023/05/07 11:51:34;;;;;;;6.90;2.63;;;;;;;;;;10301075;28;20544;-71
2023/05/07 11:56:35;;;;;;;5.72;2.38;;;;;;;;;;10301097;28;20072;-68
2023/05/07 12:01:36;;;;;;;3.67;2.50;;;;;;;;;;10300907;28;20084;-69
2023/05/07 12:06:37;;;;;;;6.43;2.65;;;;;;;;;;10301796;28;20076;-69
2023/05/07 12:11:35;;;;;;;5.18;4.30;;;;;;;;;;10300692;28;20068;-69
2023/05/07 12:16:35;;;;;;;4.10;3.60;;;;;;;;;;10297640;28;20085;-70
2023/05/07 12:21:34;;;;;;;6.00;2.55;;;;;;;;;;10307929;28;20087;-71
2023/05/07 12:26:32;;;;;;;6.43;4.07;;;;;;;;;;10300652;28;20075;-73
2023/05/07 12:31:31;;;;;;;2.80;2.47;;;;;;;;;;10297865;28;20075;-70
2023/05/07 12:36:39;;;;;;;3.58;3.22;;;;;;;;;;10293838;28;20083;-70
2023/05/07 12:41:37;;;;;;;6.45;2.22;;;;;;;;;;10294007;28;20076;-69
2023/05/07 12:46:39;;;;;;;5.43;3.13;;;;;;;;;;10297932;28;20517;-70
2023/05/07 12:51:40;;;;;;;5.88;3.35;;;;;;;;;;10298972;28;20556;-70
2023/05/07 12:56:38;;;;;;;4.10;3.40;;;;;;;;;;10298618;28;20076;-69
2023/05/07 13:01:36;;;;;;;6.88;2.95;;;;;;;;;;10292803;28;20073;-71
2023/05/07 13:06:34;;;;;;;5.00;2.88;;;;;;;;;;10297820;28;20569;-70
2023/05/07 13:11:34;;;;;;;7.72;3.35;;;;;;;;;;10298228;28;20068;-70
2023/05/07 13:16:32;;;;;;;4.28;2.70;;;;;;;;;;10298893;28;20082;-70
2023/05/07 13:21:31;;;;;;;5.90;3.22;;;;;;;;;;10297850;28;20506;-71
2023/05/07 13:26:30;;;;;;;5.60;3.17;;;;;;;;;;10293421;28;20082;-70
2023/05/07 13:31:30;;;;;;;4.28;2.95;;;;;;;;;;10297541;28;20072;-71
2023/05/07 13:36:37;;;;;;;6.45;2.70;;;;;;;;;;10294816;28;20697;-72
2023/05/07 13:41:38;;;;;;;5.00;2.42;;;;;;;;;;10300435;28;20087;-72
2023/05/07 13:46:45;;;;;;;5.72;3.10;;;;;;;;;;10290050;28;20516;-70
2023/05/07 13:51:52;;;;;;;6.40;3.10;;;;;;;;;;10292801;28;20513;-73
2023/05/07 13:56:52;;;;;;;14.27;9.95;;;;;;;;;;10293662;28;20506;-73
2023/05/07 14:01:51;;;;;;;3.15;2.85;;;;;;;;;;10299660;28;20492;-70
2023/05/07 14:06:49;;;;;;;5.22;3.55;;;;;;;;;;10300774;28;20072;-72
2023/05/07 14:11:51;;;;;;;6.68;3.05;;;;;;;;;;10301803;28;20069;-71
2023/05/07 14:16:49;;;;;;;7.40;3.38;;;;;;;;;;10299134;28;20068;-71
2023/05/07 14:21:49;;;;;;;6.63;3.30;;;;;;;;;;10297461;28;20079;-71
2023/05/07 14:26:47;;;;;;;3.55;2.25;;;;;;;;;;10286579;28;20079;-71
2023/05/07 14:31:46;;;;;;;4.07;2.85;;;;;;;;;;10290321;28;20493;-71
2023/05/07 14:36:44;;;;;;;5.55;3.58;;;;;;;;;;10293087;28;20485;-71
2023/05/07 14:41:43;;;;;;;8.25;4.10;;;;;;;;;;10295308;28;20087;-71
2023/05/07 14:47:15;;;;;;;8.57;4.32;;;;;;;;;;10291644;28;20075;-72
2023/05/07 14:52:34;;;;;;;15.07;3.80;;;;;;;;;;10294845;28;20069;-73
2023/05/07 14:57:42;;;;;;;9.70;3.42;;;;;;;;;;10300505;28;20480;-71
2023/05/07 15:02:40;;;;;;;4.75;3.70;;;;;;;;;;10302595;28;20083;-72
2023/05/07 15:07:44;;;;;;;4.82;2.78;;;;;;;;;;10302172;28;20064;-71
2023/05/07 15:12:45;;;;;;;7.75;4.03;;;;;;;;;;10299566;28;20076;-71
2023/05/07 15:17:43;;;;;;;6.55;3.45;;;;;;;;;;10302539;28;20088;-71
2023/05/07 15:22:41;;;;;;;10.45;6.80;;;;;;;;;;10301009;28;20071;-71
2023/05/07 15:27:40;;;;;;;6.22;3.33;;;;;;;;;;10305717;28;20068;-71
2023/05/07 15:32:40;;;;;;;7.07;4.47;;;;;;;;;;10301218;28;20073;-71
2023/05/07 15:37:41;;;;;;;6.68;4.43;;;;;;;;;;10301834;28;20087;-71
2023/05/07 15:42:42;;;;;;;8.95;3.72;;;;;;;;;;10302544;28;20071;-71
2023/05/07 15:47:41;;;;;;;3.80;3.45;;;;;;;;;;10302184;28;20551;-71
2023/05/07 15:52:40;;;;;;;4.28;2.70;;;;;;;;;;10300574;28;20075;-71
2023/05/07 15:57:39;;;;;;;7.50;4.45;;;;;;;;;;10301500;28;20072;-71
2023/05/07 16:02:37;;;;;;;5.40;3.00;;;;;;;;;;10300141;28;20071;-72
2023/05/07 16:07:37;;;;;;;9.98;6.25;;;;;;;;;;10297373;28;20083;-71
2023/05/07 16:12:35;;;;;;;13.07;9.40;;;;;;;;;;10298923;28;20445;-71
2023/05/07 16:17:33;;;;;;;8.35;4.35;;;;;;;;;;10299868;28;20076;-71
2023/05/07 16:22:32;;;;;;;5.00;3.95;;;;;;;;;;10300131;28;20073;-71
2023/05/07 16:27:31;;;;;;;6.10;5.10;;;;;;;;;;10298917;28;20076;-72
2023/05/07 16:32:29;;;;;;;14.38;9.40;;;;;;;;;;10297104;28;20088;-72
2023/05/07 16:37:28;;;;;;;8.45;4.72;;;;;;;;;;10292117;28;20083;-72
2023/05/07 16:42:28;;;;;;;7.50;4.90;;;;;;;;;;10295586;28;20520;-72
2023/05/07 16:47:27;;;;;;;4.82;4.25;;;;;;;;;;10299158;28;20515;-72
2023/05/07 16:52:26;;;;;;;5.38;4.13;;;;;;;;;;10293936;28;20078;-71
2023/05/07 16:57:24;;;;;;;7.80;5.03;;;;;;;;;;10298974;28;20072;-70
2023/05/07 17:02:23;;;;;;;4.78;3.70;;;;;;;;;;10304441;28;20073;-71
2023/05/07 17:07:22;;;;;;;6.78;3.42;;;;;;;;;;10299085;28;20072;-71
2023/05/07 17:12:21;;;;;;;22.90;10.88;;;;;;;;;;10296606;28;20138;-71
2023/05/07 17:17:19;;;;;;;5.93;4.97;;;;;;;;;;10295700;28;20064;-71
2023/05/07 17:22:17;;;;;;;8.68;6.05;;;;;;;;;;10295823;28;20068;-71
2023/05/07 17:27:17;;;;;;;9.10;6.93;;;;;;;;;;10298539;28;20068;-71
2023/05/07 17:32:15;;;;;;;10.10;4.93;;;;;;;;;;10296497;28;20454;-71
2023/05/07 17:37:14;;;;;;;7.13;4.90;;;;;;;;;;10297885;28;20072;-71
2023/05/07 17:42:12;;;;;;;8.07;4.32;;;;;;;;;;10296771;28;20072;-70
2023/05/07 17:47:12;;;;;;;7.20;4.40;;;;;;;;;;10294171;28;20077;-70
2023/05/07 17:52:11;;;;;;;7.38;5.00;;;;;;;;;;10297100;28;20064;-70
2023/05/07 17:57:09;;;;;;;11.93;5.15;;;;;;;;;;10302423;28;20076;-70
2023/05/07 18:02:07;;;;;;;7.60;4.30;;;;;;;;;;10296453;28;20501;-70
2023/05/07 18:07:07;;;;;;;5.70;3.55;;;;;;;;;;10295331;28;20488;-70
2023/05/07 18:12:07;;;;;;;3.90;3.50;;;;;;;;;;10292656;28;20080;-71
2023/05/07 18:17:05;;;;;;;6.90;3.95;;;;;;;;;;10295363;28;20076;-71
2023/05/07 18:22:03;;;;;;;4.35;3.10;;;;;;;;;;10296579;28;20091;-70
2023/05/07 18:27:03;;;;;;;7.88;3.40;;;;;;;;;;10293889;28;20075;-70
2023/05/07 18:32:01;;;;;;;7.25;3.78;;;;;;;;;;10293536;28;20063;-70
2023/05/07 18:36:59;;;;;;;4.30;2.80;;;;;;;;;;10296917;28;20486;-70
2023/05/07 18:41:58;;;;;;;3.35;3.00;;;;;;;;;;10295068;28;20068;-70
2023/05/07 18:46:58;;;;;;;8.30;3.08;;;;;;;;;;10294477;28;20079;-70
2023/05/07 18:51:56;;;;;;;5.03;2.40;;;;;;;;;;10295744;28;20076;-70
2023/05/07 18:56:54;;;;;;;8.07;2.97;;;;;;;;;;10288049;28;20075;-70
2023/05/07 19:01:53;;;;;;;3.92;3.17;;;;;;;;;;10294163;28;20072;-70
2023/05/07 19:06:52;;;;;;;7.25;2.65;;;;;;;;;;10295100;28;20507;-72
2023/05/07 19:11:50;;;;;;;5.28;3.00;;;;;;;;;;10292168;28;20048;-70
2023/05/07 19:16:49;;;;;;;2.40;2.20;;;;;;;;;;10297698;28;20076;-69
2023/05/07 19:21:47;;;;;;;5.60;2.60;;;;;;;;;;10293936;28;20547;-70
2023/05/07 19:26:47;;;;;;;4.40;2.83;;;;;;;;;;10294390;28;20095;-70
2023/05/07 19:31:45;;;;;;;4.25;2.35;;;;;;;;;;10294279;28;20076;-70
2023/05/07 19:36:43;;;;;;;3.40;2.63;;;;;;;;;;10295298;28;20077;-70
2023/05/07 19:41:42;;;;;;;5.15;2.78;;;;;;;;;;10292693;28;20079;-69
2023/05/07 19:46:44;;;;;;;9.27;2.65;;;;;;;;;;10297134;28;20068;-69
2023/05/07 19:51:44;;;;;;;5.20;2.30;;;;;;;;;;10297187;28;20081;-70
2023/05/07 19:56:46;;;;;;;2.40;2.20;;;;;;;;;;10293963;28;20064;-70
2023/05/07 20:01:46;;;;;;;2.50;2.15;;;;;;;;;;10301746;28;20076;-70
2023/05/07 20:06:44;;;;;;;3.05;2.38;;;;;;;;;;10293678;28;20082;-70
2023/05/07 20:11:42;;;;;;;7.28;2.65;;;;;;;;;;10299390;28;20093;-70
2023/05/07 20:16:40;;;;;;;3.95;2.67;;;;;;;;;;10304306;28;20080;-71
2023/05/07 20:21:41;;;;;;;2.85;2.03;;;;;;;;;;10298435;28;20080;-70
2023/05/07 20:26:39;;;;;;;3.45;1.92;;;;;;;;;;10300228;28;20094;-70
2023/05/07 20:31:38;;;;;;;7.25;3.08;;;;;;;;;;10299374;28;20075;-70
2023/05/07 20:36:36;;;;;;;6.65;3.35;;;;;;;;;;10301149;28;20076;-70
2023/05/07 20:41:36;;;;;;;4.05;3.63;;;;;;;;;;10312912;28;20079;-70
2023/05/07 20:46:35;;;;;;;8.13;2.40;;;;;;;;;;10297109;28;20095;-70
2023/05/07 20:51:34;;;;;;;7.88;3.17;;;;;;;;;;10299256;28;20071;-70
2023/05/07 20:56:32;;;;;;;8.30;3.53;;;;;;;;;;10295371;28;20083;-70
2023/05/07 21:01:31;;;;;;;6.65;3.20;;;;;;;;;;10295776;28;20079;-70
2023/05/07 21:06:30;;;;;;;2.88;2.55;;;;;;;;;;10293714;28;20519;-70
2023/05/07 21:11:28;;;;;;;4.95;2.30;;;;;;;;;;10299401;28;20072;-70
2023/05/07 21:16:26;;;;;;;3.53;2.33;;;;;;;;;;10304772;28;20071;-70
2023/05/07 21:21:26;;;;;;;5.47;2.58;;;;;;;;;;10295101;28;20083;-70
2023/05/07 21:26:25;;;;;;;4.57;2.65;;;;;;;;;;10297865;28;20076;-70
2023/05/07 21:31:23;;;;;;;3.33;2.47;;;;;;;;;;10298063;28;20072;-70
2023/05/07 21:36:21;;;;;;;6.80;2.47;;;;;;;;;;10295063;28;20060;-70
2023/05/07 21:41:21;;;;;;;7.55;3.22;;;;;;;;;;10292347;28;20102;-70
2023/05/07 21:46:19;;;;;;;3.45;2.50;;;;;;;;;;10293156;28;20076;-70
2023/05/07 21:51:18;;;;;;;4.25;2.70;;;;;;;;;;10292507;28;20071;-70
2023/05/07 21:56:16;;;;;;;4.93;2.45;;;;;;;;;;10294450;28;20068;-70
2023/05/07 22:01:16;;;;;;;3.75;2.40;;;;;;;;;;10299714;28;20438;-71
2023/05/07 22:06:16;;;;;;;4.15;2.25;;;;;;;;;;10294160;28;20071;-70
2023/05/07 22:11:15;;;;;;;3.47;2.60;;;;;;;;;;10296664;28;20060;-70
2023/05/07 22:16:13;;;;;;;5.07;2.50;;;;;;;;;;10295716;28;20071;-69
2023/05/07 22:21:12;;;;;;;5.18;2.63;;;;;;;;;;10297345;28;20102;-70
2023/05/07 22:26:11;;;;;;;9.13;3.28;;;;;;;;;;10295741;28;20524;-70
2023/05/07 22:31:10;;;;;;;8.82;2.53;;;;;;;;;;10295942;28;20071;-70
2023/05/07 22:36:08;;;;;;;5.05;2.30;;;;;;;;;;10296165;28;20110;-70
2023/05/07 22:41:07;;;;;;;4.32;2.47;;;;;;;;;;10294047;28;20082;-70
2023/05/07 22:46:06;;;;;;;3.03;2.30;;;;;;;;;;10295587;28;20072;-70
2023/05/07 22:51:04;;;;;;;5.88;2.30;;;;;;;;;;10294150;28;20083;-70
2023/05/07 22:56:05;;;;;;;3.85;3.05;;;;;;;;;;10292689;28;20067;-70
2023/05/07 23:01:10;;;;;;;7.43;2.38;;;;;;;;;;10295724;28;20106;-70
2023/05/07 23:06:09;;;;;;;3.40;2.47;;;;;;;;;;10292335;28;20067;-70
2023/05/07 23:11:07;;;;;;;3.60;2.10;;;;;;;;;;10294032;28;20076;-71
2023/05/07 23:16:07;;;;;;;3.30;2.38;;;;;;;;;;10296891;28;20068;-70
2023/05/07 23:21:06;;;;;;;3.35;2.50;;;;;;;;;;10301582;28;20092;-70
2023/05/07 23:26:04;;;;;;;5.22;2.92;;;;;;;;;;10302544;28;20072;-68
2023/05/07 23:31:02;;;;;;;3.05;2.10;;;;;;;;;;10303508;28;20206;-69
2023/05/07 23:36:02;;;;;;;5.20;2.28;;;;;;;;;;10302416;28;20057;-71
2023/05/07 23:41:01;;;;;;;3.45;2.13;;;;;;;;;;10297223;28;20091;-69
2023/05/07 23:45:59;;;;;;;5.68;2.30;;;;;;;;;;10301831;28;20132;-70
2023/05/07 23:50:57;;;;;;;4.25;2.38;;;;;;;;;;10301421;28;20486;-70
2023/05/07 23:55:57;;;;;;;4.55;2.47;;;;;;;;;;10301944;28;20068;-70
